sensor_id;sensor_type;location;lat;lon;timestamp;temperature;humidity
2260;DHT22;333;48.800;9.530;2023-08-01T00:01:08;17.50;99.60
2260;DHT22;333;48.800;9.530;2023-08-01T00:03:35;17.40;99.60
2260;DHT22;333;48.800;9.530;2023-08-01T00:06:02;17.40;99.60
2260;DHT22;333;48.800;9.530;2023-08-01T00:08:29;17.40;99.60
2260;DHT22;333;48.800;9.530;2023-08-01T00:10:56;17.40;99.60
2260;DHT22;333;48.800;9.530;2023-08-01T00:13:24;17.40;99.60
2260;DHT22;333;48.800;9.530;2023-08-01T00:15:51;17.50;99.60
2260;DHT22;333;48.800;9.530;2023-08-01T00:18:18;17.60;99.60
2260;DHT22;333;48.800;9.530;2023-08-01T00:20:45;17.60;99.60
2260;DHT22;333;48.800;9.530;2023-08-01T00:23:12;17.50;99.60
2260;DHT22;333;48.800;9.530;2023-08-01T00:25:39;17.50;99.60
2260;DHT22;333;48.800;9.530;2023-08-01T00:28:06;17.50;99.60
2260;DHT22;333;48.800;9.530;2023-08-01T00:30:34;17.60;99.60
2260;DHT22;333;48.800;9.530;2023-08-01T00:33:01;17.70;99.60
2260;DHT22;333;48.800;9.530;2023-08-01T00:35:28;17.70;99.60
2260;DHT22;333;48.800;9.530;2023-08-01T00:37:55;17.60;99.60
2260;DHT22;333;48.800;9.530;2023-08-01T00:40:22;17.60;99.60
2260;DHT22;333;48.800;9.530;2023-08-01T00:42:50;17.40;99.60
2260;DHT22;333;48.800;9.530;2023-08-01T00:45:21;17.30;99.60
2260;DHT22;333;48.800;9.530;2023-08-01T00:47:51;17.40;99.60
2260;DHT22;333;48.800;9.530;2023-08-01T00:50:18;17.40;99.60
2260;DHT22;333;48.800;9.530;2023-08-01T00:52:46;17.40;99.60
2260;DHT22;333;48.800;9.530;2023-08-01T00:55:13;17.40;99.60
2260;DHT22;333;48.800;9.530;2023-08-01T00:57:40;17.30;99.60
2260;DHT22;333;48.800;9.530;2023-08-01T01:00:09;17.50;99.60
2260;DHT22;333;48.800;9.530;2023-08-01T01:02:36;17.50;99.60
2260;DHT22;333;48.800;9.530;2023-08-01T01:05:05;17.30;99.60
2260;DHT22;333;48.800;9.530;2023-08-01T01:07:33;17.30;99.60
2260;DHT22;333;48.800;9.530;2023-08-01T01:10:00;17.40;99.60
2260;DHT22;333;48.800;9.530;2023-08-01T01:12:27;17.40;99.60
2260;DHT22;333;48.800;9.530;2023-08-01T01:14:54;17.40;99.60
2260;DHT22;333;48.800;9.530;2023-08-01T01:17:21;17.30;99.60
2260;DHT22;333;48.800;9.530;2023-08-01T01:19:48;17.20;99.60
2260;DHT22;333;48.800;9.530;2023-08-01T01:22:17;17.10;99.60
2260;DHT22;333;48.800;9.530;2023-08-01T01:24:45;17.10;99.60
2260;DHT22;333;48.800;9.530;2023-08-01T01:27:13;17.00;99.60
2260;DHT22;333;48.800;9.530;2023-08-01T01:29:43;17.00;99.60
2260;DHT22;333;48.800;9.530;2023-08-01T01:32:10;17.00;99.60
2260;DHT22;333;48.800;9.530;2023-08-01T01:34:38;17.00;99.60
2260;DHT22;333;48.800;9.530;2023-08-01T01:37:05;17.00;99.60
2260;DHT22;333;48.800;9.530;2023-08-01T01:39:33;17.00;99.60
2260;DHT22;333;48.800;9.530;2023-08-01T01:42:00;17.00;99.60
2260;DHT22;333;48.800;9.530;2023-08-01T01:44:27;17.00;99.60
2260;DHT22;333;48.800;9.530;2023-08-01T01:46:54;17.00;99.60
2260;DHT22;333;48.800;9.530;2023-08-01T01:49:21;17.00;99.60
2260;DHT22;333;48.800;9.530;2023-08-01T01:51:48;17.00;99.60
2260;DHT22;333;48.800;9.530;2023-08-01T01:54:15;17.00;99.60
2260;DHT22;333;48.800;9.530;2023-08-01T01:56:43;17.10;99.60
2260;DHT22;333;48.800;9.530;2023-08-01T01:59:10;17.10;99.60
2260;DHT22;333;48.800;9.530;2023-08-01T02:01:37;17.10;99.60
2260;DHT22;333;48.800;9.530;2023-08-01T02:04:04;17.10;99.60
2260;DHT22;333;48.800;9.530;2023-08-01T02:06:31;17.10;99.60
2260;DHT22;333;48.800;9.530;2023-08-01T02:08:58;17.10;99.60
2260;DHT22;333;48.800;9.530;2023-08-01T02:11:25;17.20;99.60
2260;DHT22;333;48.800;9.530;2023-08-01T02:13:54;17.20;99.60
2260;DHT22;333;48.800;9.530;2023-08-01T02:16:21;17.10;99.60
2260;DHT22;333;48.800;9.530;2023-08-01T02:18:47;17.30;99.60
2260;DHT22;333;48.800;9.530;2023-08-01T02:21:14;17.30;99.60
2260;DHT22;333;48.800;9.530;2023-08-01T02:23:41;17.30;99.60
2260;DHT22;333;48.800;9.530;2023-08-01T02:26:08;17.30;99.60
2260;DHT22;333;48.800;9.530;2023-08-01T02:28:35;17.30;99.60
2260;DHT22;333;48.800;9.530;2023-08-01T02:31:03;17.10;99.60
2260;DHT22;333;48.800;9.530;2023-08-01T02:33:30;17.20;99.60
2260;DHT22;333;48.800;9.530;2023-08-01T02:35:57;17.20;99.60
2260;DHT22;333;48.800;9.530;2023-08-01T02:38:24;17.30;99.60
2260;DHT22;333;48.800;9.530;2023-08-01T02:40:51;17.20;99.60
2260;DHT22;333;48.800;9.530;2023-08-01T02:43:18;17.10;99.60
2260;DHT22;333;48.800;9.530;2023-08-01T02:45:45;17.20;99.60
2260;DHT22;333;48.800;9.530;2023-08-01T02:48:13;17.30;99.60
2260;DHT22;333;48.800;9.530;2023-08-01T02:50:40;17.30;99.60
2260;DHT22;333;48.800;9.530;2023-08-01T02:53:07;17.20;99.60
2260;DHT22;333;48.800;9.530;2023-08-01T02:55:34;17.20;99.60
2260;DHT22;333;48.800;9.530;2023-08-01T02:58:01;17.20;99.60
2260;DHT22;333;48.800;9.530;2023-08-01T03:00:28;17.20;99.60
2260;DHT22;333;48.800;9.530;2023-08-01T03:02:57;17.10;99.60
2260;DHT22;333;48.800;9.530;2023-08-01T03:05:25;17.00;99.60
2260;DHT22;333;48.800;9.530;2023-08-01T03:07:52;17.00;99.60
2260;DHT22;333;48.800;9.530;2023-08-01T03:10:19;17.10;99.60
2260;DHT22;333;48.800;9.530;2023-08-01T03:12:46;17.10;99.60
2260;DHT22;333;48.800;9.530;2023-08-01T03:15:13;17.10;99.60
2260;DHT22;333;48.800;9.530;2023-08-01T03:17:40;17.00;99.60
2260;DHT22;333;48.800;9.530;2023-08-01T03:20:08;17.10;99.60
2260;DHT22;333;48.800;9.530;2023-08-01T03:22:38;17.10;99.60
2260;DHT22;333;48.800;9.530;2023-08-01T03:25:06;17.10;99.60
2260;DHT22;333;48.800;9.530;2023-08-01T03:27:34;17.10;99.60
2260;DHT22;333;48.800;9.530;2023-08-01T03:30:01;17.10;99.60
2260;DHT22;333;48.800;9.530;2023-08-01T03:32:30;17.10;99.60
2260;DHT22;333;48.800;9.530;2023-08-01T03:34:57;17.00;99.60
2260;DHT22;333;48.800;9.530;2023-08-01T03:37:24;17.10;99.60
2260;DHT22;333;48.800;9.530;2023-08-01T03:39:52;17.10;99.60
2260;DHT22;333;48.800;9.530;2023-08-01T03:42:19;17.10;99.60
2260;DHT22;333;48.800;9.530;2023-08-01T03:44:46;17.10;99.60
2260;DHT22;333;48.800;9.530;2023-08-01T03:47:13;17.10;99.60
2260;DHT22;333;48.800;9.530;2023-08-01T03:49:40;17.10;99.60
2260;DHT22;333;48.800;9.530;2023-08-01T03:52:07;17.10;99.60
2260;DHT22;333;48.800;9.530;2023-08-01T03:54:34;17.10;99.60
2260;DHT22;333;48.800;9.530;2023-08-01T03:57:04;17.20;99.60
2260;DHT22;333;48.800;9.530;2023-08-01T03:59:31;17.20;99.60
2260;DHT22;333;48.800;9.530;2023-08-01T04:01:58;17.30;99.60
2260;DHT22;333;48.800;9.530;2023-08-01T04:04:26;17.40;99.60
2260;DHT22;333;48.800;9.530;2023-08-01T04:07:01;17.60;99.60
2260;DHT22;333;48.800;9.530;2023-08-01T04:09:28;17.70;99.60
2260;DHT22;333;48.800;9.530;2023-08-01T04:11:56;17.80;99.60
2260;DHT22;333;48.800;9.530;2023-08-01T04:14:24;17.90;99.60
2260;DHT22;333;48.800;9.530;2023-08-01T04:16:51;18.00;99.60
2260;DHT22;333;48.800;9.530;2023-08-01T04:19:18;18.10;99.60
2260;DHT22;333;48.800;9.530;2023-08-01T04:21:45;18.20;99.60
2260;DHT22;333;48.800;9.530;2023-08-01T04:24:12;18.30;99.60
2260;DHT22;333;48.800;9.530;2023-08-01T04:26:38;18.40;99.60
2260;DHT22;333;48.800;9.530;2023-08-01T04:29:05;18.50;99.60
2260;DHT22;333;48.800;9.530;2023-08-01T04:31:34;18.60;99.60
2260;DHT22;333;48.800;9.530;2023-08-01T04:34:01;18.70;99.60
2260;DHT22;333;48.800;9.530;2023-08-01T04:36:28;18.60;99.60
2260;DHT22;333;48.800;9.530;2023-08-01T04:38:55;18.60;99.60
2260;DHT22;333;48.800;9.530;2023-08-01T04:41:22;18.60;99.60
2260;DHT22;333;48.800;9.530;2023-08-01T04:43:49;18.60;99.60
2260;DHT22;333;48.800;9.530;2023-08-01T04:46:16;18.60;99.60
2260;DHT22;333;48.800;9.530;2023-08-01T04:48:44;18.70;99.60
2260;DHT22;333;48.800;9.530;2023-08-01T04:51:11;18.80;99.60
2260;DHT22;333;48.800;9.530;2023-08-01T04:53:38;18.80;99.60
2260;DHT22;333;48.800;9.530;2023-08-01T04:56:05;18.90;99.60
2260;DHT22;333;48.800;9.530;2023-08-01T04:58:32;18.80;99.60
2260;DHT22;333;48.800;9.530;2023-08-01T05:00:59;18.80;99.60
2260;DHT22;333;48.800;9.530;2023-08-01T05:03:26;18.80;99.60
2260;DHT22;333;48.800;9.530;2023-08-01T05:05:54;18.90;99.60
2260;DHT22;333;48.800;9.530;2023-08-01T05:08:21;19.00;99.60
2260;DHT22;333;48.800;9.530;2023-08-01T05:10:48;19.10;99.60
2260;DHT22;333;48.800;9.530;2023-08-01T05:13:15;19.10;99.60
2260;DHT22;333;48.800;9.530;2023-08-01T05:15:44;19.00;99.60
2260;DHT22;333;48.800;9.530;2023-08-01T05:18:13;19.00;99.60
2260;DHT22;333;48.800;9.530;2023-08-01T05:20:40;19.00;99.60
2260;DHT22;333;48.800;9.530;2023-08-01T05:23:08;19.00;99.60
2260;DHT22;333;48.800;9.530;2023-08-01T05:25:35;19.00;99.60
2260;DHT22;333;48.800;9.530;2023-08-01T05:28:02;19.00;99.60
2260;DHT22;333;48.800;9.530;2023-08-01T05:30:29;18.90;99.60
2260;DHT22;333;48.800;9.530;2023-08-01T05:32:56;18.80;99.60
2260;DHT22;333;48.800;9.530;2023-08-01T05:35:23;18.70;99.60
2260;DHT22;333;48.800;9.530;2023-08-01T05:37:50;18.70;99.60
2260;DHT22;333;48.800;9.530;2023-08-01T05:40:18;18.80;99.60
2260;DHT22;333;48.800;9.530;2023-08-01T05:42:45;19.00;99.60
2260;DHT22;333;48.800;9.530;2023-08-01T05:45:12;19.10;99.60
2260;DHT22;333;48.800;9.530;2023-08-01T05:47:39;19.00;99.60
2260;DHT22;333;48.800;9.530;2023-08-01T05:50:06;19.00;99.60
2260;DHT22;333;48.800;9.530;2023-08-01T05:52:34;19.00;99.60
2260;DHT22;333;48.800;9.530;2023-08-01T05:55:01;18.90;99.60
2260;DHT22;333;48.800;9.530;2023-08-01T05:57:29;18.80;99.60
2260;DHT22;333;48.800;9.530;2023-08-01T05:59:56;18.80;99.60
2260;DHT22;333;48.800;9.530;2023-08-01T06:02:23;18.60;99.60
2260;DHT22;333;48.800;9.530;2023-08-01T06:04:50;18.50;99.60
2260;DHT22;333;48.800;9.530;2023-08-01T06:07:17;18.50;99.60
2260;DHT22;333;48.800;9.530;2023-08-01T06:09:48;18.50;99.60
2260;DHT22;333;48.800;9.530;2023-08-01T06:12:16;18.30;99.60
2260;DHT22;333;48.800;9.530;2023-08-01T06:14:45;18.30;99.60
2260;DHT22;333;48.800;9.530;2023-08-01T06:17:12;18.30;99.60
2260;DHT22;333;48.800;9.530;2023-08-01T06:19:39;18.30;99.60
2260;DHT22;333;48.800;9.530;2023-08-01T06:22:06;18.30;99.60
2260;DHT22;333;48.800;9.530;2023-08-01T06:24:33;18.50;99.60
2260;DHT22;333;48.800;9.530;2023-08-01T06:27:00;18.40;99.60
2260;DHT22;333;48.800;9.530;2023-08-01T06:29:27;18.40;99.60
2260;DHT22;333;48.800;9.530;2023-08-01T06:31:55;18.20;99.60
2260;DHT22;333;48.800;9.530;2023-08-01T06:34:22;18.20;99.60
2260;DHT22;333;48.800;9.530;2023-08-01T06:36:50;18.20;99.60
2260;DHT22;333;48.800;9.530;2023-08-01T06:39:17;18.20;99.60
2260;DHT22;333;48.800;9.530;2023-08-01T06:41:44;18.20;99.60
2260;DHT22;333;48.800;9.530;2023-08-01T06:44:11;18.30;99.60
2260;DHT22;333;48.800;9.530;2023-08-01T06:46:38;18.40;99.60
2260;DHT22;333;48.800;9.530;2023-08-01T06:49:06;18.30;99.60
2260;DHT22;333;48.800;9.530;2023-08-01T06:51:33;18.20;99.60
2260;DHT22;333;48.800;9.530;2023-08-01T06:54:00;18.10;99.60
2260;DHT22;333;48.800;9.530;2023-08-01T06:56:26;17.90;99.60
2260;DHT22;333;48.800;9.530;2023-08-01T06:58:53;18.00;99.60
2260;DHT22;333;48.800;9.530;2023-08-01T07:01:20;17.80;99.60
2260;DHT22;333;48.800;9.530;2023-08-01T07:03:48;17.70;99.60
2260;DHT22;333;48.800;9.530;2023-08-01T07:06:18;17.60;99.60
2260;DHT22;333;48.800;9.530;2023-08-01T07:08:44;17.50;99.60
2260;DHT22;333;48.800;9.530;2023-08-01T07:11:11;17.40;99.60
2260;DHT22;333;48.800;9.530;2023-08-01T07:13:38;17.30;99.60
2260;DHT22;333;48.800;9.530;2023-08-01T07:16:05;17.30;99.60
2260;DHT22;333;48.800;9.530;2023-08-01T07:18:32;17.20;99.60
2260;DHT22;333;48.800;9.530;2023-08-01T07:21:00;17.30;99.60
2260;DHT22;333;48.800;9.530;2023-08-01T07:23:28;17.40;99.60
2260;DHT22;333;48.800;9.530;2023-08-01T07:25:55;17.40;99.60
2260;DHT22;333;48.800;9.530;2023-08-01T07:28:22;17.30;99.60
2260;DHT22;333;48.800;9.530;2023-08-01T07:30:57;17.40;99.60
2260;DHT22;333;48.800;9.530;2023-08-01T07:33:24;17.30;99.60
2260;DHT22;333;48.800;9.530;2023-08-01T07:35:51;17.40;99.60
2260;DHT22;333;48.800;9.530;2023-08-01T07:38:18;17.40;99.60
2260;DHT22;333;48.800;9.530;2023-08-01T07:40:46;17.50;99.60
2260;DHT22;333;48.800;9.530;2023-08-01T07:43:13;17.50;99.60
2260;DHT22;333;48.800;9.530;2023-08-01T07:45:40;17.50;99.60
2260;DHT22;333;48.800;9.530;2023-08-01T07:48:07;17.50;99.60
2260;DHT22;333;48.800;9.530;2023-08-01T07:50:34;17.30;99.60
2260;DHT22;333;48.800;9.530;2023-08-01T07:53:01;17.10;99.60
2260;DHT22;333;48.800;9.530;2023-08-01T07:55:28;17.10;99.60
2260;DHT22;333;48.800;9.530;2023-08-01T07:57:56;17.00;99.60
2260;DHT22;333;48.800;9.530;2023-08-01T08:00:23;17.10;99.60
2260;DHT22;333;48.800;9.530;2023-08-01T08:02:50;17.10;99.60
2260;DHT22;333;48.800;9.530;2023-08-01T08:05:17;17.10;99.60
2260;DHT22;333;48.800;9.530;2023-08-01T08:07:44;17.10;99.60
2260;DHT22;333;48.800;9.530;2023-08-01T08:10:12;17.00;99.60
2260;DHT22;333;48.800;9.530;2023-08-01T08:12:39;17.00;99.60
2260;DHT22;333;48.800;9.530;2023-08-01T08:15:09;16.90;99.60
2260;DHT22;333;48.800;9.530;2023-08-01T08:17:36;16.90;99.60
2260;DHT22;333;48.800;9.530;2023-08-01T08:20:04;16.90;99.60
2260;DHT22;333;48.800;9.530;2023-08-01T08:22:31;16.90;99.60
2260;DHT22;333;48.800;9.530;2023-08-01T08:24:58;16.90;99.60
2260;DHT22;333;48.800;9.530;2023-08-01T08:27:25;17.00;99.60
2260;DHT22;333;48.800;9.530;2023-08-01T08:29:52;17.00;99.60
2260;DHT22;333;48.800;9.530;2023-08-01T08:32:21;16.90;99.60
2260;DHT22;333;48.800;9.530;2023-08-01T08:34:48;16.90;99.60
2260;DHT22;333;48.800;9.530;2023-08-01T08:37:15;17.00;99.60
2260;DHT22;333;48.800;9.530;2023-08-01T08:39:42;16.90;99.60
2260;DHT22;333;48.800;9.530;2023-08-01T08:42:10;17.00;99.60
2260;DHT22;333;48.800;9.530;2023-08-01T08:44:42;16.90;99.60
2260;DHT22;333;48.800;9.530;2023-08-01T08:47:11;16.90;99.60
2260;DHT22;333;48.800;9.530;2023-08-01T08:49:40;16.90;99.60
2260;DHT22;333;48.800;9.530;2023-08-01T08:52:09;17.00;99.60
2260;DHT22;333;48.800;9.530;2023-08-01T08:54:37;17.10;99.60
2260;DHT22;333;48.800;9.530;2023-08-01T08:57:06;17.10;99.60
2260;DHT22;333;48.800;9.530;2023-08-01T08:59:33;17.20;99.60
2260;DHT22;333;48.800;9.530;2023-08-01T09:02:02;17.30;99.60
2260;DHT22;333;48.800;9.530;2023-08-01T09:04:30;17.40;99.60
2260;DHT22;333;48.800;9.530;2023-08-01T09:07:02;17.50;99.60
2260;DHT22;333;48.800;9.530;2023-08-01T09:09:29;17.60;99.60
2260;DHT22;333;48.800;9.530;2023-08-01T09:11:56;17.60;99.60
2260;DHT22;333;48.800;9.530;2023-08-01T09:14:22;17.70;99.60
2260;DHT22;333;48.800;9.530;2023-08-01T09:16:49;17.90;99.60
2260;DHT22;333;48.800;9.530;2023-08-01T09:19:17;18.00;99.60
2260;DHT22;333;48.800;9.530;2023-08-01T09:21:45;18.10;99.60
2260;DHT22;333;48.800;9.530;2023-08-01T09:24:15;18.30;99.60
2260;DHT22;333;48.800;9.530;2023-08-01T09:26:43;18.40;99.60
2260;DHT22;333;48.800;9.530;2023-08-01T09:29:10;18.50;99.60
2260;DHT22;333;48.800;9.530;2023-08-01T09:31:38;18.50;99.60
2260;DHT22;333;48.800;9.530;2023-08-01T09:34:06;18.40;99.60
2260;DHT22;333;48.800;9.530;2023-08-01T09:36:33;18.20;99.60
2260;DHT22;333;48.800;9.530;2023-08-01T09:39:02;18.20;99.60
2260;DHT22;333;48.800;9.530;2023-08-01T09:41:31;18.20;99.60
2260;DHT22;333;48.800;9.530;2023-08-01T09:43:58;18.20;99.60
2260;DHT22;333;48.800;9.530;2023-08-01T09:46:25;18.20;99.60
2260;DHT22;333;48.800;9.530;2023-08-01T09:48:52;18.30;99.60
2260;DHT22;333;48.800;9.530;2023-08-01T09:51:19;18.30;99.60
2260;DHT22;333;48.800;9.530;2023-08-01T09:53:47;18.40;99.60
2260;DHT22;333;48.800;9.530;2023-08-01T09:56:15;18.50;99.60
2260;DHT22;333;48.800;9.530;2023-08-01T09:58:45;18.40;99.60
2260;DHT22;333;48.800;9.530;2023-08-01T10:01:13;18.40;99.60
2260;DHT22;333;48.800;9.530;2023-08-01T10:03:42;18.40;99.60
2260;DHT22;333;48.800;9.530;2023-08-01T10:06:11;18.40;99.60
2260;DHT22;333;48.800;9.530;2023-08-01T10:08:39;18.40;99.60
2260;DHT22;333;48.800;9.530;2023-08-01T10:11:07;18.50;99.60
2260;DHT22;333;48.800;9.530;2023-08-01T10:13:35;18.50;99.60
2260;DHT22;333;48.800;9.530;2023-08-01T10:16:05;18.60;99.60
2260;DHT22;333;48.800;9.530;2023-08-01T10:18:33;18.70;99.60
2260;DHT22;333;48.800;9.530;2023-08-01T10:21:03;18.80;99.60
2260;DHT22;333;48.800;9.530;2023-08-01T10:23:32;18.90;99.60
2260;DHT22;333;48.800;9.530;2023-08-01T10:26:00;19.00;99.60
2260;DHT22;333;48.800;9.530;2023-08-01T10:28:33;19.10;99.60
2260;DHT22;333;48.800;9.530;2023-08-01T10:31:10;19.20;99.60
2260;DHT22;333;48.800;9.530;2023-08-01T10:33:38;19.30;99.60
2260;DHT22;333;48.800;9.530;2023-08-01T10:36:15;19.50;99.60
2260;DHT22;333;48.800;9.530;2023-08-01T10:38:50;19.50;99.60
2260;DHT22;333;48.800;9.530;2023-08-01T10:41:25;19.40;99.60
2260;DHT22;333;48.800;9.530;2023-08-01T10:44:03;19.30;99.60
2260;DHT22;333;48.800;9.530;2023-08-01T10:46:45;19.40;99.60
2260;DHT22;333;48.800;9.530;2023-08-01T10:49:12;19.50;99.60
2260;DHT22;333;48.800;9.530;2023-08-01T10:51:39;19.60;99.60
2260;DHT22;333;48.800;9.530;2023-08-01T10:54:06;19.60;99.60
2260;DHT22;333;48.800;9.530;2023-08-01T10:56:35;19.70;99.60
2260;DHT22;333;48.800;9.530;2023-08-01T10:59:05;19.90;99.60
2260;DHT22;333;48.800;9.530;2023-08-01T11:01:43;20.20;99.60
2260;DHT22;333;48.800;9.530;2023-08-01T11:04:14;20.40;99.60
2260;DHT22;333;48.800;9.530;2023-08-01T11:06:45;21.20;99.60
2260;DHT22;333;48.800;9.530;2023-08-01T11:09:19;22.00;99.60
2260;DHT22;333;48.800;9.530;2023-08-01T11:11:49;22.50;99.60
2260;DHT22;333;48.800;9.530;2023-08-01T11:14:19;22.90;99.60
2260;DHT22;333;48.800;9.530;2023-08-01T11:16:48;23.10;99.60
2260;DHT22;333;48.800;9.530;2023-08-01T11:19:20;22.90;99.60
2260;DHT22;333;48.800;9.530;2023-08-01T11:21:47;22.40;99.60
2260;DHT22;333;48.800;9.530;2023-08-01T11:24:15;21.80;99.60
2260;DHT22;333;48.800;9.530;2023-08-01T11:26:42;21.40;99.60
2260;DHT22;333;48.800;9.530;2023-08-01T11:29:10;21.00;99.60
2260;DHT22;333;48.800;9.530;2023-08-01T11:31:37;20.50;99.60
2260;DHT22;333;48.800;9.530;2023-08-01T11:34:06;20.40;99.60
2260;DHT22;333;48.800;9.530;2023-08-01T11:36:34;20.70;99.60
2260;DHT22;333;48.800;9.530;2023-08-01T11:39:01;21.10;99.60
2260;DHT22;333;48.800;9.530;2023-08-01T11:41:28;21.50;99.60
2260;DHT22;333;48.800;9.530;2023-08-01T11:44:01;21.80;99.60
2260;DHT22;333;48.800;9.530;2023-08-01T11:46:31;22.20;99.60
2260;DHT22;333;48.800;9.530;2023-08-01T11:48:58;22.40;99.60
2260;DHT22;333;48.800;9.530;2023-08-01T11:51:27;22.20;99.60
2260;DHT22;333;48.800;9.530;2023-08-01T11:54:01;22.20;99.60
2260;DHT22;333;48.800;9.530;2023-08-01T11:56:28;22.40;99.60
2260;DHT22;333;48.800;9.530;2023-08-01T11:58:56;22.50;99.60
2260;DHT22;333;48.800;9.530;2023-08-01T12:01:24;22.30;99.60
2260;DHT22;333;48.800;9.530;2023-08-01T12:03:52;22.60;99.60
2260;DHT22;333;48.800;9.530;2023-08-01T12:06:22;23.00;99.60
2260;DHT22;333;48.800;9.530;2023-08-01T12:08:52;22.90;99.60
2260;DHT22;333;48.800;9.530;2023-08-01T12:11:20;22.90;99.60
2260;DHT22;333;48.800;9.530;2023-08-01T12:13:47;23.20;99.60
2260;DHT22;333;48.800;9.530;2023-08-01T12:16:14;22.70;99.60
2260;DHT22;333;48.800;9.530;2023-08-01T12:18:45;22.20;99.60
2260;DHT22;333;48.800;9.530;2023-08-01T12:21:13;21.90;99.60
2260;DHT22;333;48.800;9.530;2023-08-01T12:23:40;21.60;99.60
2260;DHT22;333;48.800;9.530;2023-08-01T12:26:09;21.50;99.60
2260;DHT22;333;48.800;9.530;2023-08-01T12:28:36;21.60;99.60
2260;DHT22;333;48.800;9.530;2023-08-01T12:31:03;21.60;99.60
2260;DHT22;333;48.800;9.530;2023-08-01T12:33:30;21.70;99.60
2260;DHT22;333;48.800;9.530;2023-08-01T12:35:59;21.80;99.60
2260;DHT22;333;48.800;9.530;2023-08-01T12:38:26;22.30;99.60
2260;DHT22;333;48.800;9.530;2023-08-01T12:40:53;22.40;99.60
2260;DHT22;333;48.800;9.530;2023-08-01T12:43:21;22.30;99.60
2260;DHT22;333;48.800;9.530;2023-08-01T12:45:48;22.30;99.60
2260;DHT22;333;48.800;9.530;2023-08-01T12:48:15;22.70;99.60
2260;DHT22;333;48.800;9.530;2023-08-01T12:50:44;22.70;99.60
2260;DHT22;333;48.800;9.530;2023-08-01T12:53:12;22.40;99.60
2260;DHT22;333;48.800;9.530;2023-08-01T12:55:40;22.60;99.60
2260;DHT22;333;48.800;9.530;2023-08-01T12:58:08;23.30;99.60
2260;DHT22;333;48.800;9.530;2023-08-01T13:00:37;24.00;97.30
2260;DHT22;333;48.800;9.530;2023-08-01T13:03:04;23.70;94.50
2260;DHT22;333;48.800;9.530;2023-08-01T13:05:34;23.60;95.80
2260;DHT22;333;48.800;9.530;2023-08-01T13:08:01;23.90;93.70
2260;DHT22;333;48.800;9.530;2023-08-01T13:10:29;23.70;93.80
2260;DHT22;333;48.800;9.530;2023-08-01T13:12:57;23.60;93.90
2260;DHT22;333;48.800;9.530;2023-08-01T13:15:24;24.00;92.80
2260;DHT22;333;48.800;9.530;2023-08-01T13:17:53;23.90;94.20
2260;DHT22;333;48.800;9.530;2023-08-01T13:20:20;23.90;93.10
2260;DHT22;333;48.800;9.530;2023-08-01T13:22:49;23.70;92.10
2260;DHT22;333;48.800;9.530;2023-08-01T13:25:16;23.40;94.40
2260;DHT22;333;48.800;9.530;2023-08-01T13:27:43;23.30;94.60
2260;DHT22;333;48.800;9.530;2023-08-01T13:30:11;22.70;95.00
2260;DHT22;333;48.800;9.530;2023-08-01T13:32:40;22.30;96.40
2260;DHT22;333;48.800;9.530;2023-08-01T13:35:09;22.30;96.80
2260;DHT22;333;48.800;9.530;2023-08-01T13:37:36;22.00;96.90
2260;DHT22;333;48.800;9.530;2023-08-01T13:40:04;21.90;97.20
2260;DHT22;333;48.800;9.530;2023-08-01T13:42:31;21.80;97.50
2260;DHT22;333;48.800;9.530;2023-08-01T13:44:59;22.30;97.40
2260;DHT22;333;48.800;9.530;2023-08-01T13:47:26;23.00;95.00
2260;DHT22;333;48.800;9.530;2023-08-01T13:49:53;23.70;94.50
2260;DHT22;333;48.800;9.530;2023-08-01T13:52:22;24.10;91.30
2260;DHT22;333;48.800;9.530;2023-08-01T13:54:49;24.30;91.30
2260;DHT22;333;48.800;9.530;2023-08-01T13:57:16;24.80;89.30
2260;DHT22;333;48.800;9.530;2023-08-01T13:59:42;24.70;87.30
2260;DHT22;333;48.800;9.530;2023-08-01T14:02:10;24.30;87.70
2260;DHT22;333;48.800;9.530;2023-08-01T14:04:37;24.30;88.10
2260;DHT22;333;48.800;9.530;2023-08-01T14:07:04;24.20;89.50
2260;DHT22;333;48.800;9.530;2023-08-01T14:09:33;24.40;89.30
2260;DHT22;333;48.800;9.530;2023-08-01T14:12:01;24.70;86.50
2260;DHT22;333;48.800;9.530;2023-08-01T14:14:28;24.60;86.70
2260;DHT22;333;48.800;9.530;2023-08-01T14:16:55;24.30;86.50
2260;DHT22;333;48.800;9.530;2023-08-01T14:19:22;24.40;86.80
2260;DHT22;333;48.800;9.530;2023-08-01T14:21:54;24.70;87.20
2260;DHT22;333;48.800;9.530;2023-08-01T14:24:21;24.40;86.50
2260;DHT22;333;48.800;9.530;2023-08-01T14:26:50;24.20;87.70
2260;DHT22;333;48.800;9.530;2023-08-01T14:29:17;24.80;86.30
2260;DHT22;333;48.800;9.530;2023-08-01T14:31:48;25.40;85.70
2260;DHT22;333;48.800;9.530;2023-08-01T14:34:15;25.80;83.20
2260;DHT22;333;48.800;9.530;2023-08-01T14:36:42;25.50;84.00
2260;DHT22;333;48.800;9.530;2023-08-01T14:39:09;25.50;83.70
2260;DHT22;333;48.800;9.530;2023-08-01T14:41:36;25.50;84.30
2260;DHT22;333;48.800;9.530;2023-08-01T14:44:04;25.50;84.50
2260;DHT22;333;48.800;9.530;2023-08-01T14:46:32;25.60;84.30
2260;DHT22;333;48.800;9.530;2023-08-01T14:49:00;25.80;82.80
2260;DHT22;333;48.800;9.530;2023-08-01T14:51:27;25.10;84.00
2260;DHT22;333;48.800;9.530;2023-08-01T14:53:54;24.60;85.50
2260;DHT22;333;48.800;9.530;2023-08-01T14:56:21;24.20;87.00
2260;DHT22;333;48.800;9.530;2023-08-01T14:58:48;24.20;86.30
2260;DHT22;333;48.800;9.530;2023-08-01T15:01:16;24.00;88.00
2260;DHT22;333;48.800;9.530;2023-08-01T15:03:43;24.80;86.20
2260;DHT22;333;48.800;9.530;2023-08-01T15:06:10;25.80;83.80
2260;DHT22;333;48.800;9.530;2023-08-01T15:08:38;25.70;83.40
2260;DHT22;333;48.800;9.530;2023-08-01T15:11:06;25.90;82.90
2260;DHT22;333;48.800;9.530;2023-08-01T15:13:33;25.90;83.20
2260;DHT22;333;48.800;9.530;2023-08-01T15:16:00;25.70;83.70
2260;DHT22;333;48.800;9.530;2023-08-01T15:18:28;25.10;84.80
2260;DHT22;333;48.800;9.530;2023-08-01T15:20:55;25.00;85.50
2260;DHT22;333;48.800;9.530;2023-08-01T15:23:22;25.10;83.70
2260;DHT22;333;48.800;9.530;2023-08-01T15:25:53;25.40;82.70
2260;DHT22;333;48.800;9.530;2023-08-01T15:28:21;25.60;81.70
2260;DHT22;333;48.800;9.530;2023-08-01T15:30:48;25.90;81.10
2260;DHT22;333;48.800;9.530;2023-08-01T15:33:16;25.80;81.30
2260;DHT22;333;48.800;9.530;2023-08-01T15:35:44;26.00;80.80
2260;DHT22;333;48.800;9.530;2023-08-01T15:38:11;25.30;81.30
2260;DHT22;333;48.800;9.530;2023-08-01T15:40:38;25.80;81.60
2260;DHT22;333;48.800;9.530;2023-08-01T15:43:05;25.90;80.70
2260;DHT22;333;48.800;9.530;2023-08-01T15:45:32;26.00;80.20
2260;DHT22;333;48.800;9.530;2023-08-01T15:47:59;25.70;81.50
2260;DHT22;333;48.800;9.530;2023-08-01T15:50:26;25.80;81.20
2260;DHT22;333;48.800;9.530;2023-08-01T15:52:54;26.00;81.10
2260;DHT22;333;48.800;9.530;2023-08-01T15:55:21;25.70;82.40
2260;DHT22;333;48.800;9.530;2023-08-01T15:57:49;25.40;82.40
2260;DHT22;333;48.800;9.530;2023-08-01T16:00:16;25.80;81.10
2260;DHT22;333;48.800;9.530;2023-08-01T16:02:43;26.20;80.90
2260;DHT22;333;48.800;9.530;2023-08-01T16:05:09;25.90;80.80
2260;DHT22;333;48.800;9.530;2023-08-01T16:07:36;25.90;80.80
2260;DHT22;333;48.800;9.530;2023-08-01T16:10:05;26.20;79.90
2260;DHT22;333;48.800;9.530;2023-08-01T16:12:32;25.90;81.10
2260;DHT22;333;48.800;9.530;2023-08-01T16:14:59;25.90;81.30
2260;DHT22;333;48.800;9.530;2023-08-01T16:17:26;25.60;81.80
2260;DHT22;333;48.800;9.530;2023-08-01T16:19:53;25.70;82.00